createdAt,value
2023-09-21T00:02:50.726Z,99418.03
2023-09-21T00:07:53.881Z,99421.06
2023-09-21T00:12:56.031Z,99443.06
2023-09-21T00:17:59.669Z,99432.81
2023-09-21T00:23:01.925Z,99430.34
2023-09-21T00:28:14.174Z,99430.59
2023-09-21T00:33:17.112Z,99429.53
2023-09-21T00:38:20.936Z,99430.69
2023-09-21T00:43:28.230Z,99435.13
2023-09-21T00:48:37.504Z,99447.06
2023-09-21T00:53:41.382Z,99439.84
2023-09-21T00:58:49.179Z,99446.72
2023-09-21T01:03:54.144Z,99440.91
2023-09-21T01:08:58.340Z,99458.09
2023-09-21T01:14:00.560Z,99459.59
2023-09-21T01:19:03.485Z,99475.50
2023-09-21T01:24:07.259Z,99474.91
2023-09-21T01:29:10.668Z,99474.56
2023-09-21T01:34:12.808Z,99466.03
2023-09-21T01:39:15.065Z,99471.50
2023-09-21T01:44:17.106Z,99476.41
2023-09-21T01:49:19.201Z,99475.25
2023-09-21T01:54:21.430Z,99482.41
2023-09-21T01:59:24.130Z,99482.63
2023-09-21T02:04:27.065Z,99484.72
2023-09-21T02:09:29.740Z,99490.91
2023-09-21T02:14:33.221Z,99474.53
2023-09-21T02:19:38.801Z,99479.56
2023-09-21T02:24:41.750Z,99469.50
2023-09-21T02:29:43.982Z,99482.72
2023-09-21T02:34:46.434Z,99487.16
2023-09-21T02:39:49.803Z,99488.78
2023-09-21T02:44:52.026Z,99493.34
2023-09-21T02:49:55.016Z,99500.59
2023-09-21T02:54:59.257Z,99500.84
2023-09-21T03:00:09.980Z,99507.84
2023-09-21T03:05:12.345Z,99511.59
2023-09-21T03:10:15.115Z,99517.19
2023-09-21T03:15:19.811Z,99533.56
2023-09-21T03:20:37.964Z,99526.09
2023-09-21T03:25:51.486Z,99529.84
2023-09-21T03:30:55.616Z,99537.97
2023-09-21T03:35:58.072Z,99535.28
2023-09-21T03:41:00.347Z,99540.00
2023-09-21T03:46:02.542Z,99540.34
2023-09-21T03:51:06.242Z,99557.75
2023-09-21T03:56:08.385Z,99549.00
2023-09-21T04:01:10.891Z,99552.44
2023-09-21T04:06:13.562Z,99553.38
2023-09-21T04:11:15.884Z,99550.69
2023-09-21T04:16:18.430Z,99566.72
2023-09-21T04:21:21.499Z,99568.03
2023-09-21T04:26:23.655Z,99566.13
2023-09-21T04:31:25.792Z,99572.78
2023-09-21T04:36:27.969Z,99572.75
2023-09-21T04:41:31.462Z,99578.25
2023-09-21T04:46:33.974Z,99580.38
2023-09-21T04:51:36.355Z,99593.94
2023-09-21T04:56:38.583Z,99594.41
2023-09-21T05:01:40.856Z,99601.81
2023-09-21T05:06:43.797Z,99596.00
2023-09-21T05:11:47.450Z,99612.34
2023-09-21T05:16:49.801Z,99617.63
2023-09-21T05:21:52.264Z,99622.19
2023-09-21T05:26:55.052Z,99628.16
2023-09-21T05:31:58.225Z,99617.47
2023-09-21T05:37:00.633Z,99628.94
2023-09-21T05:42:02.925Z,99621.06
2023-09-21T05:47:05.244Z,99622.09
2023-09-21T05:52:13.205Z,99621.78
2023-09-21T05:57:17.356Z,99633.97
2023-09-21T06:02:19.454Z,99632.13
2023-09-21T06:07:22.887Z,99641.72
2023-09-21T06:12:28.976Z,99651.44
2023-09-21T06:17:31.292Z,99645.63
2023-09-21T06:22:33.460Z,99656.84
2023-09-21T06:27:37.798Z,99654.63
2023-09-21T06:32:40.688Z,99657.19
2023-09-21T06:37:42.978Z,99665.56
2023-09-21T06:42:45.154Z,99658.53
2023-09-21T06:47:49.078Z,99662.09
2023-09-21T06:52:53.127Z,99652.44
2023-09-21T06:57:55.321Z,99647.19
2023-09-21T07:02:57.548Z,99649.19
2023-09-21T07:07:59.896Z,99648.59
2023-09-21T07:13:02.005Z,99653.69
2023-09-21T07:18:06.874Z,99649.75
2023-09-21T07:23:09.443Z,99655.19
2023-09-21T07:28:11.544Z,99658.94
2023-09-21T07:33:13.828Z,99665.00
2023-09-21T07:38:16.045Z,99662.97
2023-09-21T07:43:18.223Z,99674.56
2023-09-21T07:48:21.713Z,99688.34
2023-09-21T07:53:24.028Z,99683.84
2023-09-21T07:58:26.168Z,99681.72
2023-09-21T08:03:28.529Z,99680.81
2023-09-21T08:08:30.800Z,99692.78
2023-09-21T08:13:34.862Z,99694.53
2023-09-21T08:18:37.693Z,99699.50
2023-09-21T08:23:41.365Z,99699.25
2023-09-21T08:28:43.578Z,99701.72
2023-09-21T08:33:47.199Z,99687.81
2023-09-21T08:38:49.345Z,99703.91
2023-09-21T08:43:55.722Z,99713.22
2023-09-21T08:49:01.362Z,99713.22
2023-09-21T08:54:05.239Z,99720.69
2023-09-21T08:59:08.169Z,99723.84
2023-09-21T09:04:11.674Z,99728.28
2023-09-21T09:09:14.870Z,99725.91
2023-09-21T09:14:19.008Z,99717.50
2023-09-21T09:19:22.160Z,99722.88
2023-09-21T09:24:24.977Z,99706.13
2023-09-21T09:29:28.115Z,99721.22
2023-09-21T09:34:30.190Z,99726.22
2023-09-21T09:39:32.415Z,99730.13
2023-09-21T09:44:42.456Z,99737.63
2023-09-21T09:49:49.336Z,99744.19
2023-09-21T09:54:54.061Z,99742.91
2023-09-21T09:59:58.612Z,99737.88
2023-09-21T10:05:01.020Z,99742.31
2023-09-21T10:10:09.316Z,99749.78
2023-09-21T10:15:14.775Z,99750.69
2023-09-21T10:20:26.039Z,99745.94
2023-09-21T10:25:49.634Z,99746.75
2023-09-21T10:31:24.964Z,99741.00
2023-09-21T10:36:31.991Z,99738.69
2023-09-21T10:41:34.704Z,99745.38
2023-09-21T10:46:38.937Z,99740.41
2023-09-21T10:51:41.560Z,99732.59
2023-09-21T10:56:44.461Z,99732.84
2023-09-21T11:01:47.159Z,99735.50
2023-09-21T11:06:49.525Z,99717.97
2023-09-21T11:11:51.985Z,99728.78
2023-09-21T11:16:54.609Z,99719.06
2023-09-21T11:21:57.318Z,99732.13
2023-09-21T11:26:59.807Z,99736.94
2023-09-21T11:32:02.384Z,99741.53
2023-09-21T11:37:07.143Z,99734.94
2023-09-21T11:42:11.969Z,99751.81
2023-09-21T11:47:16.829Z,99747.03
2023-09-21T11:52:19.025Z,99744.09
2023-09-21T11:57:21.427Z,99735.94
2023-09-21T12:02:23.614Z,99729.75
2023-09-21T12:07:26.124Z,99731.59
2023-09-21T12:12:28.321Z,99734.59
2023-09-21T12:17:31.424Z,99738.13
2023-09-21T12:22:38.305Z,99749.78
2023-09-21T12:27:40.663Z,99738.63
2023-09-21T12:32:42.969Z,99748.88
2023-09-21T12:37:47.932Z,99742.66
2023-09-21T12:42:50.119Z,99748.25
2023-09-21T12:47:52.239Z,99748.50
2023-09-21T12:52:55.854Z,99750.66
2023-09-21T12:57:59.964Z,99731.97
2023-09-21T13:03:04.317Z,99749.06
2023-09-21T13:08:07.357Z,99757.81
2023-09-21T13:13:12.527Z,99746.19
2023-09-21T13:18:16.679Z,99765.69
2023-09-21T13:23:18.873Z,99762.56
2023-09-21T13:28:21.372Z,99746.31
2023-09-21T13:33:24.451Z,99765.00
2023-09-21T13:38:29.107Z,99762.72
2023-09-21T13:43:31.495Z,99767.72
2023-09-21T13:48:34.691Z,99766.44
2023-09-21T13:53:37.275Z,99761.44
2023-09-21T13:58:39.493Z,99763.69
2023-09-21T14:03:41.909Z,99764.38
2023-09-21T14:08:44.806Z,99766.09
2023-09-21T14:13:47.439Z,99770.19
2023-09-21T14:18:49.589Z,99772.38
2023-09-21T14:23:51.797Z,99760.44
2023-09-21T14:28:53.924Z,99771.31
2023-09-21T14:33:58.521Z,99775.91
2023-09-21T14:39:00.933Z,99771.16
2023-09-21T14:44:03.184Z,99776.31
2023-09-21T14:49:05.391Z,99776.47
2023-09-21T14:54:08.213Z,99778.81
2023-09-21T14:59:10.514Z,99788.16
2023-09-21T15:04:12.791Z,99784.38
2023-09-21T15:09:15.791Z,99799.63
2023-09-21T15:14:18.210Z,99799.78
2023-09-21T15:19:20.344Z,99803.59
2023-09-21T15:24:23.711Z,99803.03
2023-09-21T15:29:25.976Z,99811.63
2023-09-21T15:34:28.166Z,99818.66
2023-09-21T15:39:30.479Z,99827.00
2023-09-21T15:44:33.006Z,99815.63
2023-09-21T15:49:35.101Z,99817.75
2023-09-21T15:54:37.331Z,99821.69
2023-09-21T15:59:39.599Z,99820.75
2023-09-21T16:04:41.925Z,99830.31
2023-09-21T16:09:44.322Z,99837.50
2023-09-21T16:14:46.567Z,99833.06
2023-09-21T16:19:48.902Z,99843.75
2023-09-21T16:24:51.296Z,99850.50
2023-09-21T16:29:53.495Z,99857.91
2023-09-21T16:34:55.709Z,99865.19
2023-09-21T16:39:57.865Z,99852.31
2023-09-21T16:45:00.688Z,99872.97
2023-09-21T16:50:03.522Z,99873.22
2023-09-21T16:55:06.311Z,99886.31
2023-09-21T17:00:08.852Z,99880.22
2023-09-21T17:05:11.021Z,99884.34
2023-09-21T17:10:13.316Z,99883.03
2023-09-21T17:15:15.603Z,99878.81
2023-09-21T17:20:17.918Z,99884.69
2023-09-21T17:25:20.269Z,99885.84
2023-09-21T17:30:22.443Z,99885.25
2023-09-21T17:35:24.635Z,99876.38
2023-09-21T17:40:26.966Z,99889.16
2023-09-21T17:45:29.530Z,99903.91
2023-09-21T17:50:32.835Z,99902.50
2023-09-21T17:55:35.956Z,99900.16
2023-09-21T18:00:38.336Z,99890.19
2023-09-21T18:05:40.567Z,99890.19
2023-09-21T18:10:42.712Z,99894.31
2023-09-21T18:15:44.911Z,99902.50
2023-09-21T18:20:47.298Z,99911.16
2023-09-21T18:25:49.507Z,99907.88
2023-09-21T18:30:51.993Z,99920.53
2023-09-21T18:35:54.188Z,99920.81
2023-09-21T18:40:56.442Z,99912.72
2023-09-21T18:46:01.854Z,99926.19
2023-09-21T18:51:04.043Z,99927.25
2023-09-21T18:56:07.920Z,99928.31
2023-09-21T19:01:13.400Z,99931.59
2023-09-21T19:06:16.055Z,99910.38
2023-09-21T19:11:20.043Z,99926.53
2023-09-21T19:16:22.523Z,99942.38
2023-09-21T19:21:25.108Z,99941.06
2023-09-21T19:26:27.445Z,99948.91
2023-09-21T19:31:29.610Z,99945.75
2023-09-21T19:36:31.833Z,99946.34
2023-09-21T19:41:34.164Z,99955.25
2023-09-21T19:46:36.333Z,99950.47
2023-09-21T19:51:39.037Z,99960.19
2023-09-21T19:56:44.028Z,99949.41
2023-09-21T20:01:46.410Z,99945.66
2023-09-21T20:06:48.551Z,99952.69
2023-09-21T20:11:51.858Z,99952.69
2023-09-21T20:16:54.125Z,99949.19
2023-09-21T20:21:57.820Z,99958.19
2023-09-21T20:27:00.314Z,99962.31
2023-09-21T20:32:07.021Z,99958.66
2023-09-21T20:37:09.380Z,99965.75
2023-09-21T20:42:11.476Z,99968.84
2023-09-21T20:47:13.606Z,99962.38
2023-09-21T20:52:16.571Z,99967.03
2023-09-21T20:57:19.096Z,99974.66
2023-09-21T21:02:21.242Z,99978.19
2023-09-21T21:07:23.360Z,99974.97
2023-09-21T21:12:25.701Z,99980.69
2023-09-21T21:17:29.863Z,99987.72
2023-09-21T21:22:32.101Z,99988.06
2023-09-21T21:27:34.247Z,99988.88
2023-09-21T21:32:36.564Z,99980.38
2023-09-21T21:37:38.788Z,99989.50
2023-09-21T21:42:41.815Z,99989.84
2023-09-21T21:47:44.707Z,99995.13
2023-09-21T21:52:46.896Z,99993.81
2023-09-21T21:57:49.027Z,99998.63
2023-09-21T22:02:51.213Z,99997.66
2023-09-21T22:07:54.383Z,100002.91
2023-09-21T22:12:56.728Z,100009.38
2023-09-21T22:17:58.978Z,100006.97
2023-09-21T22:23:01.254Z,100015.13
2023-09-21T22:28:04.846Z,100018.47
2023-09-21T22:33:07.957Z,100022.25
2023-09-21T22:38:14.895Z,100016.94
2023-09-21T22:43:17.472Z,100025.88
2023-09-21T22:48:19.929Z,100037.06
2023-09-21T22:53:23.043Z,100029.66
2023-09-21T22:58:25.297Z,100026.81
2023-09-21T23:03:27.810Z,100040.47
2023-09-21T23:08:30.000Z,100039.47
2023-09-21T23:13:32.157Z,100039.69
2023-09-21T23:18:34.373Z,100038.84
2023-09-21T23:23:40.546Z,100045.03
2023-09-21T23:28:43.132Z,100043.84
2023-09-21T23:33:45.623Z,100040.19
2023-09-21T23:38:48.354Z,100038.56
2023-09-21T23:43:51.157Z,100045.41
2023-09-21T23:48:53.247Z,100039.66
2023-09-21T23:53:58.048Z,100048.16
2023-09-21T23:59:00.130Z,100047.13
